Time;durP1;ratioP1;P1;durP2;ratioP2;P2;SDS_P1;SDS_P2;PMS_P1;PMS_P2;Temp;Humidity;BMP_temperature;BMP_pressure;BME280_temperature;BME280_humidity;BME280_pressure;Samples;Min_cycle;Max_cycle;Signal;HPM_P1;HPM_P2
2021/06/09 00:02:12;;;;;;;5.05;2.90;;;;;;;;;;5118906;28;20139;-76
2021/06/09 00:04:38;;;;;;;4.75;3.03;;;;;;;;;;5119589;28;20027;-75
2021/06/09 00:07:04;;;;;;;4.38;2.83;;;;;;;;;;5116849;28;20966;-76
2021/06/09 00:09:30;;;;;;;6.63;2.90;;;;;;;;;;5117115;28;20028;-75
2021/06/09 00:11:56;;;;;;;3.22;2.60;;;;;;;;;;5118292;28;20056;-75
2021/06/09 00:14:22;;;;;;;2.90;2.60;;;;;;;;;;5118479;28;20023;-75
2021/06/09 00:16:48;;;;;;;4.80;2.95;;;;;;;;;;5113178;28;20027;-75
2021/06/09 00:19:14;;;;;;;2.85;2.60;;;;;;;;;;5115446;28;20024;-74
2021/06/09 00:21:46;;;;;;;5.43;2.80;;;;;;;;;;5117746;28;20542;-75
2021/06/09 00:24:12;;;;;;;4.25;2.80;;;;;;;;;;5117941;28;20027;-75
2021/06/09 00:26:38;;;;;;;5.15;2.80;;;;;;;;;;5116576;28;20027;-75
2021/06/09 00:29:04;;;;;;;2.95;2.65;;;;;;;;;;5119710;28;20467;-74
2021/06/09 00:31:30;;;;;;;4.70;3.03;;;;;;;;;;5095076;28;20084;-75
2021/06/09 00:33:56;;;;;;;4.18;2.90;;;;;;;;;;5123021;28;20043;-75
2021/06/09 00:36:22;;;;;;;4.20;2.80;;;;;;;;;;5117466;28;20024;-75
2021/06/09 00:38:48;;;;;;;3.08;2.80;;;;;;;;;;5111592;27;20023;-75
2021/06/09 00:41:14;;;;;;;4.22;2.83;;;;;;;;;;5121769;27;20028;-75
2021/06/09 00:43:40;;;;;;;3.47;2.70;;;;;;;;;;5123300;27;20047;-74
2021/06/09 00:46:07;;;;;;;5.32;2.70;;;;;;;;;;5119273;27;20023;-75
2021/06/09 00:48:34;;;;;;;3.47;2.80;;;;;;;;;;5119688;27;20035;-75
2021/06/09 00:51:01;;;;;;;5.07;3.55;;;;;;;;;;5123104;27;20515;-74
2021/06/09 00:53:28;;;;;;;4.53;2.72;;;;;;;;;;5121998;27;20043;-74
2021/06/09 00:55:58;;;;;;;5.22;3.50;;;;;;;;;;5120862;27;20031;-75
2021/06/09 00:58:24;;;;;;;4.35;2.80;;;;;;;;;;5121666;27;20035;-75
2021/06/09 01:00:51;;;;;;;4.03;2.92;;;;;;;;;;5117682;27;20435;-75
2021/06/09 01:03:17;;;;;;;4.22;3.20;;;;;;;;;;5120646;27;20110;-74
2021/06/09 01:05:43;;;;;;;3.30;3.00;;;;;;;;;;5119661;27;20035;-75
2021/06/09 01:08:09;;;;;;;5.18;3.10;;;;;;;;;;5121101;27;20118;-74
2021/06/09 01:10:35;;;;;;;3.65;3.10;;;;;;;;;;5107321;27;20541;-74
2021/06/09 01:13:02;;;;;;;3.40;3.10;;;;;;;;;;5123705;27;20042;-75
2021/06/09 01:15:29;;;;;;;3.67;3.20;;;;;;;;;;5119441;27;20078;-74
2021/06/09 01:17:55;;;;;;;5.68;3.10;;;;;;;;;;5120546;27;20100;-74
2021/06/09 01:20:21;;;;;;;5.80;3.15;;;;;;;;;;5123296;27;20023;-73
2021/06/09 01:22:47;;;;;;;3.10;2.80;;;;;;;;;;5116428;27;20020;-74
2021/06/09 01:25:14;;;;;;;3.65;3.35;;;;;;;;;;5120391;27;20434;-74
2021/06/09 01:27:41;;;;;;;8.68;2.75;;;;;;;;;;5120072;27;20023;-74
2021/06/09 01:30:11;;;;;;;3.72;2.83;;;;;;;;;;5121234;27;21674;-75
2021/06/09 01:32:38;;;;;;;3.63;3.17;;;;;;;;;;5125023;27;20079;-75
2021/06/09 01:35:05;;;;;;;5.00;3.00;;;;;;;;;;5119943;27;20047;-74
2021/06/09 01:37:31;;;;;;;4.32;2.78;;;;;;;;;;5119967;27;20076;-74
2021/06/09 01:39:59;;;;;;;3.33;2.88;;;;;;;;;;5118905;27;20043;-75
2021/06/09 01:42:29;;;;;;;5.05;3.10;;;;;;;;;;5119396;27;20038;-74
2021/06/09 01:44:57;;;;;;;4.22;3.00;;;;;;;;;;5119390;27;20026;-74
2021/06/09 01:47:23;;;;;;;4.38;3.00;;;;;;;;;;5118063;27;20495;-74
2021/06/09 01:49:49;;;;;;;3.88;3.17;;;;;;;;;;5122692;27;20076;-73
2021/06/09 01:52:18;;;;;;;3.55;2.90;;;;;;;;;;5118597;27;20519;-73
2021/06/09 01:54:44;;;;;;;3.67;2.60;;;;;;;;;;5118606;27;20139;-74
2021/06/09 01:57:10;;;;;;;4.20;3.00;;;;;;;;;;5121148;27;20048;-74
2021/06/09 01:59:37;;;;;;;3.53;3.07;;;;;;;;;;5107956;27;20083;-75
2021/06/09 02:02:03;;;;;;;5.35;3.20;;;;;;;;;;5122903;27;20272;-73
2021/06/09 02:04:29;;;;;;;3.78;2.83;;;;;;;;;;5123831;27;20023;-73
2021/06/09 02:06:56;;;;;;;4.20;3.20;;;;;;;;;;5119849;27;20063;-73
2021/06/09 02:09:22;;;;;;;4.93;3.28;;;;;;;;;;5119085;27;20061;-73
2021/06/09 02:11:48;;;;;;;6.57;3.15;;;;;;;;;;5118754;27;20035;-74
2021/06/09 02:14:16;;;;;;;4.03;3.10;;;;;;;;;;5119723;27;20035;-74
2021/06/09 02:16:46;;;;;;;5.15;3.33;;;;;;;;;;5099513;27;20050;-75
2021/06/09 02:19:12;;;;;;;3.88;3.45;;;;;;;;;;5119255;27;20032;-73
2021/06/09 02:21:39;;;;;;;4.75;3.45;;;;;;;;;;5118783;27;20529;-74
2021/06/09 02:24:06;;;;;;;5.05;3.40;;;;;;;;;;5102463;27;20492;-74
2021/06/09 02:26:33;;;;;;;7.68;3.33;;;;;;;;;;5119178;27;20120;-74
2021/06/09 02:29:00;;;;;;;3.80;3.40;;;;;;;;;;5116526;27;20906;-74
2021/06/09 02:31:26;;;;;;;;;;;;;;;;;;5120823;27;20849;-74
2021/06/09 02:33:53;;;;;;;7.90;3.25;;;;;;;;;;5120970;27;20432;-74
2021/06/09 02:36:19;;;;;;;5.20;3.30;;;;;;;;;;5100754;27;20833;-75
2021/06/09 02:38:45;;;;;;;3.67;3.33;;;;;;;;;;5117795;27;20077;-74
2021/06/09 02:41:12;;;;;;;3.83;3.28;;;;;;;;;;5118091;27;20110;-73
2021/06/09 02:43:38;;;;;;;4.77;3.40;;;;;;;;;;5114564;27;20027;-73
2021/06/09 02:46:19;;;;;;;3.40;3.10;;;;;;;;;;5125643;27;20118;-74
2021/06/09 02:48:46;;;;;;;3.65;3.10;;;;;;;;;;5117870;27;20051;-73
2021/06/09 02:51:18;;;;;;;4.32;3.33;;;;;;;;;;5096562;27;20274;-73
2021/06/09 02:53:47;;;;;;;3.63;2.85;;;;;;;;;;5117873;27;20652;-73
2021/06/09 02:56:32;;;;;;;3.38;3.05;;;;;;;;;;5119105;27;20019;-74
2021/06/09 02:59:16;;;;;;;7.15;2.88;;;;;;;;;;5115480;27;20027;-73
2021/06/09 03:01:48;;;;;;;3.17;2.83;;;;;;;;;;5117100;27;20122;-74
2021/06/09 03:04:20;;;;;;;5.43;3.00;;;;;;;;;;5116845;27;20020;-74
2021/06/09 03:06:59;;;;;;;3.25;2.92;;;;;;;;;;5115510;27;20035;-73
2021/06/09 03:09:34;;;;;;;4.38;3.08;;;;;;;;;;5118146;27;20129;-73
2021/06/09 03:12:20;;;;;;;3.30;2.88;;;;;;;;;;5120131;27;20053;-73
2021/06/09 03:15:13;;;;;;;3.30;3.00;;;;;;;;;;5119899;27;20019;-73
2021/06/09 03:17:39;;;;;;;3.47;3.17;;;;;;;;;;5121025;27;20016;-73
2021/06/09 03:20:07;;;;;;;5.35;2.97;;;;;;;;;;5099091;27;20034;-73
2021/06/09 03:22:47;;;;;;;4.13;3.35;;;;;;;;;;5116557;27;20023;-72
2021/06/09 03:25:16;;;;;;;6.82;2.80;;;;;;;;;;5098117;27;20033;-74
2021/06/09 03:27:48;;;;;;;6.20;2.85;;;;;;;;;;5119705;27;20138;-72
2021/06/09 03:30:15;;;;;;;7.60;3.20;;;;;;;;;;5117391;27;20143;-73
2021/06/09 03:32:58;;;;;;;3.88;2.95;;;;;;;;;;5118219;27;20039;-73
2021/06/09 03:35:30;;;;;;;3.65;2.78;;;;;;;;;;5116221;27;20280;-73
2021/06/09 03:37:57;;;;;;;4.13;2.95;;;;;;;;;;5104473;27;20031;-73
2021/06/09 03:40:25;;;;;;;6.50;3.10;;;;;;;;;;5121983;27;20028;-74
2021/06/09 03:42:58;;;;;;;5.20;3.50;;;;;;;;;;5116840;28;20501;-74
2021/06/09 03:45:26;;;;;;;4.88;3.17;;;;;;;;;;5123829;27;20072;-73
2021/06/09 03:47:54;;;;;;;7.55;3.20;;;;;;;;;;5117050;27;20084;-73
2021/06/09 03:50:22;;;;;;;3.20;2.90;;;;;;;;;;5119206;27;20016;-72
2021/06/09 03:52:49;;;;;;;3.17;2.88;;;;;;;;;;5115380;28;20042;-73
2021/06/09 03:55:18;;;;;;;6.82;3.22;;;;;;;;;;5119669;28;20026;-73
2021/06/09 03:57:44;;;;;;;3.47;2.95;;;;;;;;;;5119917;28;20452;-74
2021/06/09 04:00:10;;;;;;;3.38;2.65;;;;;;;;;;5116827;28;20119;-73
2021/06/09 04:02:36;;;;;;;5.07;2.80;;;;;;;;;;5117237;28;20107;-74
2021/06/09 04:05:03;;;;;;;8.60;3.10;;;;;;;;;;5113610;28;20084;-74
2021/06/09 04:07:29;;;;;;;4.95;3.03;;;;;;;;;;5115299;28;20023;-73
2021/06/09 04:09:56;;;;;;;4.68;3.00;;;;;;;;;;5117091;28;20027;-73
2021/06/09 04:12:22;;;;;;;;;;;;;;;;;;5118706;27;20071;-74
2021/06/09 04:14:49;;;;;;;2.85;2.45;;;;;;;;;;5129208;27;20396;-75
2021/06/09 04:17:23;;;;;;;3.03;2.60;;;;;;;;;;5122981;27;20824;-73
2021/06/09 04:19:49;;;;;;;4.78;2.67;;;;;;;;;;5124137;27;20391;-75
2021/06/09 04:22:15;;;;;;;5.90;3.08;;;;;;;;;;5120592;27;20345;-73
2021/06/09 04:24:41;;;;;;;6.07;2.70;;;;;;;;;;5121817;27;20035;-74
2021/06/09 04:27:14;;;;;;;3.20;2.70;;;;;;;;;;5102915;27;20054;-74
2021/06/09 04:29:40;;;;;;;5.53;2.75;;;;;;;;;;5121284;27;20031;-74
2021/06/09 04:32:07;;;;;;;4.25;2.70;;;;;;;;;;5108167;27;20544;-73
2021/06/09 04:34:43;;;;;;;5.82;2.90;;;;;;;;;;5119959;27;20058;-74
2021/06/09 04:37:09;;;;;;;5.03;2.60;;;;;;;;;;5119798;27;20050;-75
2021/06/09 04:39:37;;;;;;;2.72;2.50;;;;;;;;;;5097319;27;20050;-73
2021/06/09 04:42:03;;;;;;;6.30;2.78;;;;;;;;;;5116885;27;20106;-74
2021/06/09 04:44:29;;;;;;;3.10;2.63;;;;;;;;;;5122274;27;20068;-73
2021/06/09 04:46:55;;;;;;;2.92;2.47;;;;;;;;;;5121579;27;20116;-74
2021/06/09 04:49:29;;;;;;;4.45;2.70;;;;;;;;;;5123132;27;20140;-74
2021/06/09 04:51:56;;;;;;;4.45;3.10;;;;;;;;;;5121884;27;20119;-77
2021/06/09 04:54:21;;;;;;;2.72;2.45;;;;;;;;;;5121357;27;20575;-73
2021/06/09 04:56:48;;;;;;;3.00;2.47;;;;;;;;;;5124662;27;20555;-76
2021/06/09 04:59:14;;;;;;;4.15;2.95;;;;;;;;;;5117337;27;20034;-75
2021/06/09 05:01:40;;;;;;;3.15;2.60;;;;;;;;;;5121904;27;20035;-73
2021/06/09 05:04:06;;;;;;;5.18;2.70;;;;;;;;;;5119704;27;20186;-74
2021/06/09 05:06:33;;;;;;;4.63;2.70;;;;;;;;;;5119246;27;20044;-76
2021/06/09 05:08:59;;;;;;;2.72;2.47;;;;;;;;;;5099369;27;20083;-76
2021/06/09 05:11:36;;;;;;;5.78;2.50;;;;;;;;;;5124223;27;20031;-74
2021/06/09 05:14:04;;;;;;;3.38;2.55;;;;;;;;;;5125421;27;20039;-76
2021/06/09 05:16:32;;;;;;;4.13;2.45;;;;;;;;;;5115928;27;20106;-75
2021/06/09 05:19:00;;;;;;;2.65;2.45;;;;;;;;;;5116117;27;20385;-77
2021/06/09 05:21:29;;;;;;;4.97;2.72;;;;;;;;;;5124012;27;20015;-74
2021/06/09 05:23:57;;;;;;;7.55;2.80;;;;;;;;;;5102371;28;20027;-74
2021/06/09 05:26:23;;;;;;;3.10;2.70;;;;;;;;;;5123889;27;20039;-73
2021/06/09 05:28:52;;;;;;;4.53;2.92;;;;;;;;;;5120848;27;20037;-74
2021/06/09 05:31:19;;;;;;;4.53;3.10;;;;;;;;;;5121846;27;20122;-73
2021/06/09 05:33:46;;;;;;;5.75;2.60;;;;;;;;;;5123804;27;20027;-75
2021/06/09 05:36:12;;;;;;;5.05;2.50;;;;;;;;;;5129948;27;20506;-74
2021/06/09 05:38:39;;;;;;;3.67;2.53;;;;;;;;;;5117797;27;20114;-74
2021/06/09 05:41:05;;;;;;;3.13;2.50;;;;;;;;;;5120624;27;20024;-75
2021/06/09 05:43:32;;;;;;;3.97;2.75;;;;;;;;;;5121184;27;20024;-75
2021/06/09 05:46:00;;;;;;;5.10;2.92;;;;;;;;;;5122843;27;20412;-75
2021/06/09 05:48:26;;;;;;;3.60;2.70;;;;;;;;;;5123348;27;20378;-73
2021/06/09 05:50:58;;;;;;;4.57;2.60;;;;;;;;;;5132411;27;20079;-74
2021/06/09 05:53:25;;;;;;;3.38;2.53;;;;;;;;;;5126597;27;20153;-73
2021/06/09 05:55:51;;;;;;;4.07;2.60;;;;;;;;;;5131081;27;20032;-71
2021/06/09 05:58:24;;;;;;;3.35;2.75;;;;;;;;;;5126104;27;20066;-72
2021/06/09 06:00:51;;;;;;;5.25;2.97;;;;;;;;;;5122305;27;20122;-74
2021/06/09 06:03:17;;;;;;;7.63;2.70;;;;;;;;;;5099916;28;20031;-75
2021/06/09 06:05:43;;;;;;;6.45;2.40;;;;;;;;;;5125409;27;20027;-74
2021/06/09 06:08:10;;;;;;;9.38;2.70;;;;;;;;;;5122394;27;20049;-74
2021/06/09 06:10:36;;;;;;;4.90;2.70;;;;;;;;;;5120708;27;20485;-74
2021/06/09 06:13:03;;;;;;;5.65;2.70;;;;;;;;;;5130724;27;20473;-73
2021/06/09 06:15:29;;;;;;;3.53;2.70;;;;;;;;;;5124205;27;20031;-71
2021/06/09 06:17:55;;;;;;;7.50;2.80;;;;;;;;;;5128811;27;20039;-73
2021/06/09 06:20:22;;;;;;;3.40;2.55;;;;;;;;;;5124208;27;20027;-74
2021/06/09 06:22:49;;;;;;;3.25;2.75;;;;;;;;;;5130345;27;20095;-74
2021/06/09 06:25:17;;;;;;;3.05;2.50;;;;;;;;;;5130350;27;20468;-74
2021/06/09 06:27:45;;;;;;;3.20;2.53;;;;;;;;;;5125895;27;20389;-74
2021/06/09 06:30:11;;;;;;;5.18;2.35;;;;;;;;;;5118650;27;20035;-74
2021/06/09 06:32:38;;;;;;;6.80;2.65;;;;;;;;;;5116697;27;20067;-74
2021/06/09 06:35:04;;;;;;;4.68;2.83;;;;;;;;;;5114242;27;20330;-76
2021/06/09 06:37:31;;;;;;;4.90;2.67;;;;;;;;;;5124401;27;20078;-74
2021/06/09 06:39:57;;;;;;;8.25;2.50;;;;;;;;;;5125546;27;20032;-74
2021/06/09 06:42:23;;;;;;;9.43;2.78;;;;;;;;;;5126433;27;20084;-74
2021/06/09 06:44:49;;;;;;;3.67;2.65;;;;;;;;;;5126431;27;20141;-74
2021/06/09 06:47:18;;;;;;;8.40;2.60;;;;;;;;;;5125465;27;20035;-75
2021/06/09 06:49:44;;;;;;;2.67;2.33;;;;;;;;;;5125702;27;20047;-74
2021/06/09 06:52:10;;;;;;;7.95;3.05;;;;;;;;;;5122277;27;20139;-74
2021/06/09 06:54:36;;;;;;;5.53;2.17;;;;;;;;;;5126849;27;20140;-75
2021/06/09 06:57:03;;;;;;;3.65;2.33;;;;;;;;;;5127724;27;20023;-74
2021/06/09 06:59:29;;;;;;;6.65;2.85;;;;;;;;;;5125996;27;20027;-74
2021/06/09 07:01:56;;;;;;;8.27;2.17;;;;;;;;;;5123712;27;20423;-75
2021/06/09 07:04:22;;;;;;;4.45;2.60;;;;;;;;;;5128829;27;20316;-74
2021/06/09 07:06:49;;;;;;;2.97;2.35;;;;;;;;;;5124735;27;20030;-75
2021/06/09 07:09:16;;;;;;;5.47;2.63;;;;;;;;;;5125434;27;20073;-75
2021/06/09 07:11:43;;;;;;;13.73;6.60;;;;;;;;;;5122876;27;20099;-74
2021/06/09 07:14:09;;;;;;;5.13;2.58;;;;;;;;;;5128377;27;20091;-73
2021/06/09 07:16:37;;;;;;;5.25;2.63;;;;;;;;;;5128526;27;20022;-73
2021/06/09 07:19:03;;;;;;;6.95;3.40;;;;;;;;;;5128796;27;20023;-72
2021/06/09 07:21:29;;;;;;;8.02;3.10;;;;;;;;;;5127606;27;20035;-70
2021/06/09 07:23:55;;;;;;;5.47;2.50;;;;;;;;;;5123723;27;20468;-73
2021/06/09 07:26:22;;;;;;;2.73;2.30;;;;;;;;;;5129115;27;20515;-72
2021/06/09 07:28:55;;;;;;;6.20;2.70;;;;;;;;;;5129289;27;20110;-71
2021/06/09 07:31:26;;;;;;;6.70;2.80;;;;;;;;;;5115126;27;20035;-72
2021/06/09 07:33:52;;;;;;;6.35;3.00;;;;;;;;;;5127787;27;20540;-73
2021/06/09 07:36:21;;;;;;;9.52;3.53;;;;;;;;;;5099267;27;20038;-73
2021/06/09 07:38:50;;;;;;;6.95;3.30;;;;;;;;;;5129934;27;20050;-72
2021/06/09 07:41:17;;;;;;;5.47;3.33;;;;;;;;;;5128354;27;20035;-73
2021/06/09 07:43:45;;;;;;;6.65;2.70;;;;;;;;;;5117064;27;20027;-73
2021/06/09 07:46:15;;;;;;;6.63;3.20;;;;;;;;;;5098944;28;20499;-73
2021/06/09 07:48:42;;;;;;;6.72;3.03;;;;;;;;;;5117725;27;20054;-72
2021/06/09 07:51:12;;;;;;;6.78;3.58;;;;;;;;;;5097702;28;20053;-72
2021/06/09 07:53:39;;;;;;;5.25;3.33;;;;;;;;;;5121886;28;20043;-72
2021/06/09 07:56:05;;;;;;;;;;;;;;;;;;5123746;28;20102;-72
2021/06/09 07:58:32;;;;;;;3.92;3.20;;;;;;;;;;5130147;28;20104;-72
2021/06/09 08:00:59;;;;;;;5.35;3.35;;;;;;;;;;5120643;28;20048;-71
2021/06/09 08:03:26;;;;;;;7.30;3.30;;;;;;;;;;5118071;28;20046;-71
2021/06/09 08:05:53;;;;;;;7.55;3.60;;;;;;;;;;5123890;28;20028;-72
2021/06/09 08:08:19;;;;;;;5.35;3.35;;;;;;;;;;5130011;28;20072;-72
2021/06/09 08:10:46;;;;;;;4.03;2.55;;;;;;;;;;5128822;28;20027;-71
2021/06/09 08:13:12;;;;;;;4.50;3.03;;;;;;;;;;5129118;28;20051;-72
2021/06/09 08:15:39;;;;;;;5.07;2.78;;;;;;;;;;5124787;28;20021;-72
2021/06/09 08:18:06;;;;;;;10.32;3.15;;;;;;;;;;5129496;28;20068;-72
2021/06/09 08:20:32;;;;;;;5.65;3.28;;;;;;;;;;5129785;28;20099;-72
2021/06/09 08:22:58;;;;;;;6.60;2.95;;;;;;;;;;5129048;28;20031;-74
2021/06/09 08:25:24;;;;;;;9.48;3.03;;;;;;;;;;5124085;28;20387;-72
2021/06/09 08:27:51;;;;;;;9.23;3.27;;;;;;;;;;5128887;28;20462;-72
2021/06/09 08:30:18;;;;;;;5.35;3.03;;;;;;;;;;5130059;28;20049;-72
2021/06/09 08:32:44;;;;;;;6.45;3.17;;;;;;;;;;5120690;28;20537;-72
2021/06/09 08:35:10;;;;;;;7.22;3.00;;;;;;;;;;5120571;28;20047;-72
2021/06/09 08:37:37;;;;;;;8.83;3.27;;;;;;;;;;5121693;28;20537;-72
2021/06/09 08:40:05;;;;;;;3.83;2.83;;;;;;;;;;5128646;28;20322;-72
2021/06/09 08:42:32;;;;;;;6.57;2.95;;;;;;;;;;5111428;28;20031;-71
2021/06/09 08:44:59;;;;;;;6.95;2.80;;;;;;;;;;5127931;28;20135;-71
2021/06/09 08:47:25;;;;;;;5.85;2.90;;;;;;;;;;5122575;28;20426;-72
2021/06/09 08:49:52;;;;;;;8.20;3.13;;;;;;;;;;5129210;28;20124;-71
2021/06/09 08:52:18;;;;;;;4.65;3.05;;;;;;;;;;5128459;28;20398;-72
2021/06/09 08:54:47;;;;;;;3.43;2.77;;;;;;;;;;5129121;28;20127;-71
2021/06/09 08:57:14;;;;;;;5.30;2.78;;;;;;;;;;5126959;28;20023;-71
2021/06/09 08:59:42;;;;;;;3.80;3.00;;;;;;;;;;5106508;27;20039;-71
2021/06/09 09:02:09;;;;;;;3.08;2.55;;;;;;;;;;5121919;27;20027;-71
2021/06/09 09:04:36;;;;;;;4.07;2.60;;;;;;;;;;5125765;27;20106;-72
2021/06/09 09:07:02;;;;;;;5.72;3.00;;;;;;;;;;5132985;27;20238;-71
2021/06/09 09:09:28;;;;;;;2.88;2.58;;;;;;;;;;5127410;27;20084;-72
2021/06/09 09:11:54;;;;;;;3.88;2.70;;;;;;;;;;5132850;27;20515;-72
2021/06/09 09:14:20;;;;;;;2.80;2.50;;;;;;;;;;5132132;27;20035;-72
2021/06/09 09:17:05;;;;;;;5.53;2.78;;;;;;;;;;5132670;27;20416;-72
2021/06/09 09:19:33;;;;;;;5.97;3.35;;;;;;;;;;5109209;27;20830;-72
2021/06/09 09:21:59;;;;;;;5.88;2.80;;;;;;;;;;5132526;27;20476;-72
2021/06/09 09:24:38;;;;;;;4.93;3.33;;;;;;;;;;5127518;27;20477;-72
2021/06/09 09:27:05;;;;;;;9.20;3.60;;;;;;;;;;5132335;27;20039;-72
2021/06/09 09:29:31;;;;;;;4.43;2.67;;;;;;;;;;5131883;27;20027;-72
2021/06/09 09:31:58;;;;;;;4.38;2.85;;;;;;;;;;5128870;27;20035;-73
2021/06/09 09:34:36;;;;;;;2.70;2.50;;;;;;;;;;5122866;27;20031;-72
2021/06/09 09:37:07;;;;;;;5.63;2.60;;;;;;;;;;5132007;27;20035;-72
2021/06/09 09:39:35;;;;;;;5.47;2.80;;;;;;;;;;5123270;27;20028;-72
2021/06/09 09:42:19;;;;;;;4.93;2.80;;;;;;;;;;5113990;27;20035;-73
2021/06/09 09:44:45;;;;;;;6.38;2.83;;;;;;;;;;5131585;27;20502;-72
2021/06/09 09:47:15;;;;;;;6.10;3.07;;;;;;;;;;5123538;27;20035;-72
2021/06/09 09:49:41;;;;;;;3.90;2.60;;;;;;;;;;5130292;27;20035;-72
2021/06/09 09:52:07;;;;;;;5.75;2.80;;;;;;;;;;5126839;27;20095;-72
2021/06/09 09:54:35;;;;;;;5.35;2.75;;;;;;;;;;5129118;27;20023;-71
2021/06/09 09:57:02;;;;;;;2.78;2.58;;;;;;;;;;5119982;27;20481;-71
2021/06/09 09:59:30;;;;;;;5.18;2.97;;;;;;;;;;5125638;27;20032;-72
2021/06/09 10:01:57;;;;;;;3.08;2.75;;;;;;;;;;5127753;27;20031;-72
2021/06/09 10:04:25;;;;;;;4.15;3.20;;;;;;;;;;5091377;27;20231;-71
2021/06/09 10:06:52;;;;;;;5.18;2.70;;;;;;;;;;5116675;27;20513;-72
2021/06/09 10:09:18;;;;;;;4.07;2.88;;;;;;;;;;5125131;27;20024;-72
2021/06/09 10:11:55;;;;;;;8.30;3.13;;;;;;;;;;5128502;27;20042;-72
2021/06/09 10:14:21;;;;;;;4.72;2.83;;;;;;;;;;5130847;27;20047;-72
2021/06/09 10:16:51;;;;;;;7.47;3.33;;;;;;;;;;5131283;27;20046;-72
2021/06/09 10:19:18;;;;;;;4.95;3.40;;;;;;;;;;5124860;27;20072;-71
2021/06/09 10:22:03;;;;;;;4.57;3.25;;;;;;;;;;5127799;27;20390;-72
2021/06/09 10:24:29;;;;;;;6.75;3.28;;;;;;;;;;5123102;27;20512;-72
2021/06/09 10:27:00;;;;;;;3.30;2.90;;;;;;;;;;5129707;27;20024;-71
2021/06/09 10:29:29;;;;;;;4.32;3.20;;;;;;;;;;5129311;27;20039;-72
2021/06/09 10:32:00;;;;;;;3.75;3.05;;;;;;;;;;5122240;27;20496;-71
2021/06/09 10:34:28;;;;;;;5.30;3.20;;;;;;;;;;5129814;27;20030;-72
2021/06/09 10:36:54;;;;;;;6.07;3.30;;;;;;;;;;5129854;27;20031;-71
2021/06/09 10:39:22;;;;;;;4.57;3.50;;;;;;;;;;5125012;27;20120;-72
2021/06/09 10:41:52;;;;;;;5.20;3.17;;;;;;;;;;5125513;27;20489;-72
2021/06/09 10:44:20;;;;;;;4.13;3.47;;;;;;;;;;5128092;27;20410;-73
2021/06/09 10:46:48;;;;;;;5.65;3.47;;;;;;;;;;5122352;27;20373;-71
2021/06/09 10:49:16;;;;;;;5.22;3.55;;;;;;;;;;5118032;27;20046;-71
2021/06/09 10:51:42;;;;;;;6.13;3.30;;;;;;;;;;5118828;27;20058;-73
2021/06/09 10:54:12;;;;;;;4.35;3.35;;;;;;;;;;5122964;27;20069;-72
2021/06/09 10:56:39;;;;;;;7.47;3.72;;;;;;;;;;5098870;27;20023;-72
2021/06/09 10:59:05;;;;;;;8.60;3.20;;;;;;;;;;5122627;27;20023;-72
2021/06/09 11:01:32;;;;;;;6.72;3.70;;;;;;;;;;5114605;27;20411;-71
2021/06/09 11:03:58;;;;;;;8.38;3.40;;;;;;;;;;5125964;27;20481;-71
2021/06/09 11:06:38;;;;;;;4.65;3.60;;;;;;;;;;5129333;27;20114;-71
2021/06/09 11:09:11;;;;;;;5.10;3.45;;;;;;;;;;5127895;27;20408;-71
2021/06/09 11:11:37;;;;;;;5.88;3.40;;;;;;;;;;5116218;27;20479;-72
2021/06/09 11:14:17;;;;;;;4.80;3.53;;;;;;;;;;5111824;27;20125;-73
2021/06/09 11:17:09;;;;;;;10.45;3.85;;;;;;;;;;5104017;27;20492;-72
2021/06/09 11:19:38;;;;;;;9.73;5.40;;;;;;;;;;5123871;27;20035;-70
2021/06/09 11:22:25;;;;;;;4.50;3.55;;;;;;;;;;5131643;27;20022;-73
2021/06/09 11:25:06;;;;;;;4.72;3.53;;;;;;;;;;5131618;27;20019;-70
2021/06/09 11:27:32;;;;;;;4.20;3.70;;;;;;;;;;5115910;27;20023;-72
2021/06/09 11:30:00;;;;;;;10.13;3.87;;;;;;;;;;5114385;27;20178;-72
2021/06/09 11:32:26;;;;;;;6.72;3.70;;;;;;;;;;5116599;27;20123;-72
2021/06/09 11:34:59;;;;;;;5.77;3.73;;;;;;;;;;5125593;27;20027;-72
2021/06/09 11:37:29;;;;;;;6.28;4.00;;;;;;;;;;5105410;28;20054;-72
2021/06/09 11:40:02;;;;;;;5.30;4.07;;;;;;;;;;5126023;27;20053;-72
2021/06/09 11:42:28;;;;;;;6.78;5.15;;;;;;;;;;5131227;27;20092;-72
2021/06/09 11:44:54;;;;;;;9.03;4.10;;;;;;;;;;5116777;27;20106;-72
2021/06/09 11:47:27;;;;;;;6.17;3.47;;;;;;;;;;5113174;28;20473;-72
2021/06/09 11:49:54;;;;;;;4.20;3.72;;;;;;;;;;5117885;27;20331;-71
2021/06/09 11:52:21;;;;;;;5.20;3.58;;;;;;;;;;5109158;28;20302;-73
2021/06/09 11:54:48;;;;;;;4.00;3.60;;;;;;;;;;5115047;28;20108;-74
2021/06/09 11:57:18;;;;;;;7.65;4.78;;;;;;;;;;5123688;28;20947;-72
2021/06/09 11:59:45;;;;;;;5.90;3.92;;;;;;;;;;5112975;28;20062;-72
2021/06/09 12:02:11;;;;;;;;;;;;;;;;;;5120794;28;20398;-72
2021/06/09 12:04:41;;;;;;;7.22;4.25;;;;;;;;;;5114496;28;19919;-72
2021/06/09 12:07:08;;;;;;;4.28;3.70;;;;;;;;;;5119702;28;20047;-72
2021/06/09 12:09:34;;;;;;;6.95;3.80;;;;;;;;;;5102386;28;20106;-73
2021/06/09 12:12:01;;;;;;;7.47;4.77;;;;;;;;;;5095202;28;20181;-70
2021/06/09 12:14:32;;;;;;;4.72;3.40;;;;;;;;;;5116093;28;20126;-70
2021/06/09 12:17:18;;;;;;;7.63;3.78;;;;;;;;;;5116923;28;20023;-70
2021/06/09 12:19:44;;;;;;;;;;;;;;;;;;5117802;28;20023;-70
2021/06/09 12:22:12;;;;;;;6.32;3.72;;;;;;;;;;5118025;28;19911;-70
2021/06/09 12:24:38;;;;;;;9.07;3.60;;;;;;;;;;5119282;28;20109;-70
2021/06/09 12:27:06;;;;;;;4.95;3.53;;;;;;;;;;5121112;28;20032;-70
2021/06/09 12:29:33;;;;;;;4.80;3.83;;;;;;;;;;5123915;28;20106;-70
2021/06/09 12:32:01;;;;;;;5.28;3.47;;;;;;;;;;5126158;28;20469;-70
2021/06/09 12:34:28;;;;;;;5.03;3.83;;;;;;;;;;5125861;27;20047;-70
2021/06/09 12:36:56;;;;;;;5.35;3.42;;;;;;;;;;5129872;27;20115;-69
2021/06/09 12:39:22;;;;;;;7.00;4.30;;;;;;;;;;5104714;27;20520;-69
2021/06/09 12:41:49;;;;;;;6.78;4.05;;;;;;;;;;5132035;27;20102;-70
2021/06/09 12:44:15;;;;;;;5.50;3.58;;;;;;;;;;5115541;27;20104;-70
2021/06/09 12:46:49;;;;;;;5.72;3.25;;;;;;;;;;5114564;27;20031;-70
2021/06/09 12:49:22;;;;;;;5.30;3.63;;;;;;;;;;5127818;27;20031;-70
2021/06/09 12:52:00;;;;;;;4.18;3.50;;;;;;;;;;5117924;27;20092;-70
2021/06/09 12:54:26;;;;;;;7.05;3.70;;;;;;;;;;5116153;27;20039;-70
2021/06/09 12:56:52;;;;;;;4.40;3.53;;;;;;;;;;5129915;27;20030;-70
2021/06/09 12:59:31;;;;;;;7.88;3.70;;;;;;;;;;5129780;27;21771;-70
2021/06/09 13:01:58;;;;;;;4.25;3.20;;;;;;;;;;5132950;27;20089;-70
2021/06/09 13:04:40;;;;;;;9.13;3.42;;;;;;;;;;5112787;27;20027;-70
2021/06/09 13:07:07;;;;;;;4.38;3.15;;;;;;;;;;5121833;27;20015;-70
2021/06/09 13:09:33;;;;;;;13.30;3.60;;;;;;;;;;5127981;27;20031;-68
2021/06/09 13:12:01;;;;;;;9.25;3.38;;;;;;;;;;5132648;27;20020;-70
2021/06/09 13:14:31;;;;;;;4.38;3.42;;;;;;;;;;5105149;27;20485;-69
2021/06/09 13:17:01;;;;;;;3.67;2.90;;;;;;;;;;5130673;27;20125;-70
2021/06/09 13:19:27;;;;;;;3.25;2.80;;;;;;;;;;5108415;27;20069;-70
2021/06/09 13:21:53;;;;;;;4.75;3.17;;;;;;;;;;5132845;27;20435;-70
2021/06/09 13:24:37;;;;;;;5.82;3.20;;;;;;;;;;5131916;27;20035;-70
2021/06/09 13:27:11;;;;;;;5.28;3.00;;;;;;;;;;5105178;27;20031;-69
2021/06/09 13:29:39;;;;;;;4.63;3.30;;;;;;;;;;5132142;27;20380;-70
2021/06/09 13:32:21;;;;;;;4.75;3.47;;;;;;;;;;5132742;27;20030;-70
2021/06/09 13:34:53;;;;;;;5.97;3.28;;;;;;;;;;5125000;27;20087;-70
2021/06/09 13:37:22;;;;;;;4.95;3.50;;;;;;;;;;5130005;27;20038;-70
2021/06/09 13:39:50;;;;;;;4.78;3.20;;;;;;;;;;5124091;27;20361;-69
2021/06/09 13:42:17;;;;;;;5.40;3.33;;;;;;;;;;5132657;27;20043;-67
2021/06/09 13:44:45;;;;;;;3.30;3.00;;;;;;;;;;5127152;27;20030;-68
2021/06/09 13:47:11;;;;;;;3.65;2.83;;;;;;;;;;5127982;27;20031;-68
2021/06/09 13:49:38;;;;;;;5.90;3.20;;;;;;;;;;5131781;27;20027;-70
2021/06/09 13:52:06;;;;;;;4.32;3.30;;;;;;;;;;5125605;27;20043;-70
2021/06/09 13:54:37;;;;;;;4.28;3.33;;;;;;;;;;5126023;27;20024;-71
2021/06/09 13:57:34;;;;;;;4.15;3.40;;;;;;;;;;5129575;27;20055;-68
2021/06/09 14:00:01;;;;;;;3.70;3.33;;;;;;;;;;5112405;27;20063;-68
2021/06/09 14:02:29;;;;;;;6.95;3.30;;;;;;;;;;5124131;27;20045;-71
2021/06/09 14:05:03;;;;;;;5.15;3.40;;;;;;;;;;5130848;27;20094;-71
2021/06/09 14:07:29;;;;;;;3.70;3.08;;;;;;;;;;5110040;27;20126;-71
2021/06/09 14:09:58;;;;;;;3.92;3.15;;;;;;;;;;5129973;27;20118;-70
2021/06/09 14:12:24;;;;;;;3.28;2.95;;;;;;;;;;5130653;27;20358;-70
2021/06/09 14:14:50;;;;;;;4.30;3.20;;;;;;;;;;5130653;27;20019;-70
2021/06/09 14:17:20;;;;;;;5.63;3.10;;;;;;;;;;5130402;27;20577;-69
2021/06/09 14:20:05;;;;;;;6.50;3.22;;;;;;;;;;5126495;27;20032;-71
2021/06/09 14:22:35;;;;;;;3.30;2.97;;;;;;;;;;5124942;27;20031;-68
2021/06/09 14:25:20;;;;;;;4.55;3.33;;;;;;;;;;5123703;27;20049;-68
2021/06/09 14:28:07;;;;;;;3.75;2.80;;;;;;;;;;5122160;27;20023;-69
2021/06/09 14:30:33;;;;;;;5.10;2.85;;;;;;;;;;5112151;27;20035;-67
2021/06/09 14:35:46;;;;;;;3.70;3.17;;;;;;;;;;5121403;27;20038;-71
2021/06/09 14:38:13;;;;;;;3.45;3.00;;;;;;;;;;5120062;27;20450;-70
2021/06/09 14:40:39;;;;;;;5.30;3.30;;;;;;;;;;5125869;27;20030;-70
2021/06/09 14:43:06;;;;;;;5.65;3.22;;;;;;;;;;5111294;27;20139;-70
2021/06/09 14:45:33;;;;;;;5.28;3.20;;;;;;;;;;5125880;27;20031;-70
2021/06/09 14:48:19;;;;;;;4.78;3.50;;;;;;;;;;5126962;27;20027;-69
2021/06/09 14:50:45;;;;;;;;;;;;;;;;;;5117953;27;20038;-69
2021/06/09 14:53:11;;;;;;;6.55;3.92;;;;;;;;;;5130398;27;19919;-70
2021/06/09 14:55:37;;;;;;;7.10;3.58;;;;;;;;;;5108144;28;20031;-71
2021/06/09 14:58:03;;;;;;;6.03;3.63;;;;;;;;;;5107557;28;20037;-71